Time;durP1;ratioP1;P1;durP2;ratioP2;P2;SDS_P1;SDS_P2;PMS_P1;PMS_P2;Temp;Humidity;BMP_temperature;BMP_pressure;BME280_temperature;BME280_humidity;BME280_pressure;Samples;Min_cycle;Max_cycle;Signal;HPM_P1;HPM_P2
2022/01/06 00:00:40;;;;;;;;;;;;;;;;;;5050696;28;19924;-75
2022/01/06 00:03:07;;;;;;;;;;;;;;;;;;5050536;28;19925;-75
2022/01/06 00:05:34;;;;;;;;;;;;;;;;;;5048996;28;19928;-75
2022/01/06 00:08:02;;;;;;;;;;;;;;;;;;5055267;28;20443;-75
2022/01/06 00:10:30;;;;;;;;;;;;;;;;;;5047848;28;20020;-75
2022/01/06 00:13:08;;;;;;;;;;;;;;;;;;5049369;28;19994;-75
2022/01/06 00:15:41;;;;;;;;;;;;;;;;;;5050802;28;19929;-75
2022/01/06 00:18:25;;;;;;;;;;;;;;;;;;5053064;28;20353;-75
2022/01/06 00:23:39;;;;;;;;;;;;;;;;;;5050192;28;19920;-75
2022/01/06 00:26:06;;;;;;;;;;;;;;;;;;5051173;28;19932;-75
2022/01/06 00:28:33;;;;;;;;;;;;;;;;;;5046060;28;19929;-74
2022/01/06 00:31:00;;;;;;;;;;;;;;;;;;5048999;28;20319;-74
2022/01/06 00:33:27;;;;;;;;;;;;;;;;;;5052184;28;20349;-74
2022/01/06 00:35:54;;;;;;;;;;;;;;;;;;5051411;28;20393;-74
2022/01/06 00:38:22;;;;;;;;;;;;;;;;;;5049702;28;19925;-75
2022/01/06 00:40:49;;;;;;;;;;;;;;;;;;5050149;28;19970;-74
2022/01/06 00:43:16;;;;;;;;;;;;;;;;;;5050639;28;19925;-74
2022/01/06 00:45:43;;;;;;;;;;;;;;;;;;5042645;28;20016;-74
2022/01/06 00:48:10;;;;;;;;;;;;;;;;;;5049628;28;20004;-75
2022/01/06 00:50:37;;;;;;;;;;;;;;;;;;5051190;28;20402;-75
2022/01/06 00:53:04;;;;;;;;;;;;;;;;;;5052401;28;19975;-75
2022/01/06 00:55:31;;;;;;;;;;;;;;;;;;5048015;28;19932;-74
2022/01/06 00:57:58;;;;;;;;;;;;;;;;;;5050670;28;20393;-74
2022/01/06 01:00:28;;;;;;;;;;;;;;;;;;5052100;28;19948;-75
2022/01/06 01:02:55;;;;;;;;;;;;;;;;;;5049224;28;20323;-75
2022/01/06 01:05:22;;;;;;;;;;;;;;;;;;5049350;28;19935;-74
2022/01/06 01:07:49;;;;;;;;;;;;;;;;;;5052009;28;19925;-74
2022/01/06 01:10:16;;;;;;;;;;;;;;;;;;5050941;28;19924;-73
2022/01/06 01:12:47;;;;;;;;;;;;;;;;;;5049449;28;19931;-74
2022/01/06 01:15:19;;;;;;;;;;;;;;;;;;5048746;28;19983;-73
2022/01/06 01:17:47;;;;;;;;;;;;;;;;;;5051938;28;20400;-75
2022/01/06 01:20:14;;;;;;;;;;;;;;;;;;5050432;28;20441;-75
2022/01/06 01:22:41;;;;;;;;;;;;;;;;;;5046217;28;19931;-75
2022/01/06 01:25:08;;;;;;;;;;;;;;;;;;5049884;28;19928;-75
2022/01/06 01:27:40;;;;;;;;;;;;;;;;;;5051516;28;19933;-74
2022/01/06 01:30:11;;;;;;;;;;;;;;;;;;5050043;28;20015;-73
2022/01/06 01:32:39;;;;;;;;;;;;;;;;;;5050122;28;19925;-74
2022/01/06 01:35:07;;;;;;;;;;;;;;;;;;5048507;28;19956;-75
2022/01/06 01:37:34;;;;;;;;;;;;;;;;;;5048308;28;19933;-75
2022/01/06 01:40:01;;;;;;;;;;;;;;;;;;5045081;28;19931;-75
2022/01/06 01:42:28;;;;;;;;;;;;;;;;;;5042465;28;19925;-74
2022/01/06 01:44:55;;;;;;;;;;;;;;;;;;5048846;28;20389;-75
2022/01/06 01:47:29;;;;;;;;;;;;;;;;;;5047374;28;20401;-74
2022/01/06 01:49:59;;;;;;;;;;;;;;;;;;5043962;28;19924;-74
2022/01/06 01:52:26;;;;;;;;;;;;;;;;;;5046627;28;19944;-76
2022/01/06 01:54:53;;;;;;;;;;;;;;;;;;5048651;28;19925;-74
2022/01/06 01:57:20;;;;;;;;;;;;;;;;;;5044948;28;19925;-75
2022/01/06 01:59:47;;;;;;;;;;;;;;;;;;5042692;28;20023;-75
2022/01/06 02:02:14;;;;;;;;;;;;;;;;;;5044903;28;19979;-75
2022/01/06 02:04:41;;;;;;;;;;;;;;;;;;5047523;28;19979;-75
2022/01/06 02:07:08;;;;;;;;;;;;;;;;;;5050196;28;20037;-75
2022/01/06 02:09:35;;;;;;;;;;;;;;;;;;5048956;28;19925;-75
2022/01/06 02:12:02;;;;;;;;;;;;;;;;;;5049157;28;19947;-75
2022/01/06 02:14:29;;;;;;;;;;;;;;;;;;5049967;28;20631;-75
2022/01/06 02:16:56;;;;;;;;;;;;;;;;;;5042708;28;19931;-75
2022/01/06 02:19:24;;;;;;;;;;;;;;;;;;5049437;28;19924;-75
2022/01/06 02:21:51;;;;;;;;;;;;;;;;;;5050186;28;20301;-75
2022/01/06 02:24:18;;;;;;;;;;;;;;;;;;5047867;28;20370;-75
2022/01/06 02:26:45;;;;;;;;;;;;;;;;;;5049803;28;19935;-75
2022/01/06 02:29:11;;;;;;;;;;;;;;;;;;5048355;28;19929;-75
2022/01/06 02:31:38;;;;;;;;;;;;;;;;;;5046908;28;19948;-75
2022/01/06 02:34:05;;;;;;;;;;;;;;;;;;5048543;28;19925;-75
2022/01/06 02:36:32;;;;;;;;;;;;;;;;;;5042678;28;20015;-75
2022/01/06 02:38:59;;;;;;;;;;;;;;;;;;5050024;28;19925;-74
2022/01/06 02:41:26;;;;;;;;;;;;;;;;;;5044515;28;19924;-74
2022/01/06 02:43:55;;;;;;;;;;;;;;;;;;5045638;28;19925;-74
2022/01/06 02:46:22;;;;;;;;;;;;;;;;;;5046765;28;19925;-74
2022/01/06 02:48:49;;;;;;;;;;;;;;;;;;5048590;28;19951;-74
2022/01/06 02:51:16;;;;;;;;;;;;;;;;;;5045342;28;20016;-73
2022/01/06 02:53:43;;;;;;;;;;;;;;;;;;5042070;28;19932;-74
2022/01/06 02:56:10;;;;;;;;;;;;;;;;;;5046786;28;19925;-74
2022/01/06 02:58:37;;;;;;;;;;;;;;;;;;5049104;28;19932;-74
2022/01/06 03:01:04;;;;;;;;;;;;;;;;;;5045327;28;19995;-75
2022/01/06 03:03:31;;;;;;;;;;;;;;;;;;5049530;28;20326;-74
2022/01/06 03:05:58;;;;;;;;;;;;;;;;;;5047416;28;19937;-74
2022/01/06 03:08:26;;;;;;;;;;;;;;;;;;5049193;28;19972;-74
2022/01/06 03:10:54;;;;;;;;;;;;;;;;;;5047055;28;19931;-74
2022/01/06 03:13:21;;;;;;;;;;;;;;;;;;5046222;28;19999;-74
2022/01/06 03:15:48;;;;;;;;;;;;;;;;;;5049122;28;20024;-75
2022/01/06 03:18:15;;;;;;;;;;;;;;;;;;5047712;28;19929;-75
2022/01/06 03:20:42;;;;;;;;;;;;;;;;;;5047040;28;19924;-75
2022/01/06 03:23:09;;;;;;;;;;;;;;;;;;5047794;28;19931;-75
2022/01/06 03:25:36;;;;;;;;;;;;;;;;;;5045659;28;19932;-76
2022/01/06 03:28:03;;;;;;;;;;;;;;;;;;5047819;28;19931;-75
2022/01/06 03:30:30;;;;;;;;;;;;;;;;;;5043730;28;19924;-75
2022/01/06 03:32:57;;;;;;;;;;;;;;;;;;5043384;28;19931;-75
2022/01/06 03:35:24;;;;;;;;;;;;;;;;;;5046739;28;20011;-75
2022/01/06 03:37:51;;;;;;;;;;;;;;;;;;5045495;28;19928;-74
2022/01/06 03:40:18;;;;;;;;;;;;;;;;;;5042483;28;19925;-74
2022/01/06 03:42:45;;;;;;;;;;;;;;;;;;5047947;28;19974;-76
2022/01/06 03:45:12;;;;;;;;;;;;;;;;;;5050012;28;19925;-75
2022/01/06 03:47:39;;;;;;;;;;;;;;;;;;5048641;28;19925;-76
2022/01/06 03:50:06;;;;;;;;;;;;;;;;;;5046613;28;19948;-75
2022/01/06 03:52:33;;;;;;;;;;;;;;;;;;5047864;28;20000;-74
2022/01/06 03:55:00;;;;;;;;;;;;;;;;;;5047607;28;20410;-75
2022/01/06 03:57:27;;;;;;;;;;;;;;;;;;5045402;28;20011;-75
2022/01/06 03:59:54;;;;;;;;;;;;;;;;;;5046468;28;19931;-75
2022/01/06 04:02:21;;;;;;;;;;;;;;;;;;5047485;28;19925;-75
2022/01/06 04:04:48;;;;;;;;;;;;;;;;;;5046435;28;19931;-75
2022/01/06 04:07:15;;;;;;;;;;;;;;;;;;5044555;28;19935;-75
2022/01/06 04:09:42;;;;;;;;;;;;;;;;;;5044237;28;20171;-75
2022/01/06 04:12:10;;;;;;;;;;;;;;;;;;5043005;28;20019;-75
2022/01/06 04:14:38;;;;;;;;;;;;;;;;;;5048960;28;20355;-74
2022/01/06 04:17:07;;;;;;;;;;;;;;;;;;5050693;28;20249;-75
2022/01/06 04:19:34;;;;;;;;;;;;;;;;;;5051119;28;19933;-75
2022/01/06 04:22:01;;;;;;;;;;;;;;;;;;5047234;28;20291;-75
2022/01/06 04:24:28;;;;;;;;;;;;;;;;;;5049952;28;19935;-76
2022/01/06 04:26:55;;;;;;;;;;;;;;;;;;5052706;28;20313;-73
2022/01/06 04:29:22;;;;;;;;;;;;;;;;;;5050161;28;19924;-75
2022/01/06 04:31:50;;;;;;;;;;;;;;;;;;5046682;28;20241;-75
2022/01/06 04:34:17;;;;;;;;;;;;;;;;;;5045454;28;20024;-74
2022/01/06 04:36:49;;;;;;;;;;;;;;;;;;5050793;28;20436;-75
2022/01/06 04:39:16;;;;;;;;;;;;;;;;;;5048741;28;19939;-74
2022/01/06 04:41:43;;;;;;;;;;;;;;;;;;5045832;28;19924;-75
2022/01/06 04:44:10;;;;;;;;;;;;;;;;;;5047613;28;19924;-74
2022/01/06 04:46:37;;;;;;;;;;;;;;;;;;5051306;28;19924;-74
2022/01/06 04:49:05;;;;;;;;;;;;;;;;;;5049820;28;19931;-75
2022/01/06 04:51:32;;;;;;;;;;;;;;;;;;5044704;28;19925;-75
2022/01/06 04:53:59;;;;;;;;;;;;;;;;;;5047966;28;19925;-75
2022/01/06 04:56:26;;;;;;;;;;;;;;;;;;5048228;28;20531;-75
2022/01/06 04:58:53;;;;;;;;;;;;;;;;;;5045649;28;20007;-76
2022/01/06 05:01:20;;;;;;;;;;;;;;;;;;5045875;28;19928;-74
2022/01/06 05:03:47;;;;;;;;;;;;;;;;;;5047157;28;19925;-74
2022/01/06 05:06:14;;;;;;;;;;;;;;;;;;5049076;28;20396;-74
2022/01/06 05:08:41;;;;;;;;;;;;;;;;;;5047784;28;19931;-74
2022/01/06 05:11:08;;;;;;;;;;;;;;;;;;5050899;28;19929;-74
2022/01/06 05:13:35;;;;;;;;;;;;;;;;;;5052284;28;19925;-75
2022/01/06 05:16:02;;;;;;;;;;;;;;;;;;5054556;28;20368;-75
2022/01/06 05:18:29;;;;;;;;;;;;;;;;;;5055388;28;19925;-76
2022/01/06 05:20:56;;;;;;;;;;;;;;;;;;5057954;28;20465;-74
2022/01/06 05:23:23;;;;;;;;;;;;;;;;;;5052561;28;19925;-74
2022/01/06 05:25:49;;;;;;;;;;;;;;;;;;5049343;28;19943;-74
2022/01/06 05:28:16;;;;;;;;;;;;;;;;;;5050808;28;19925;-75
2022/01/06 05:30:43;;;;;;;;;;;;;;;;;;5039859;28;19931;-74
2022/01/06 05:33:12;;;;;;;;;;;;;;;;;;5043934;28;20289;-74
2022/01/06 05:35:39;;;;;;;;;;;;;;;;;;5049744;28;19925;-75
2022/01/06 05:38:06;;;;;;;;;;;;;;;;;;5046227;28;20390;-75
2022/01/06 05:40:33;;;;;;;;;;;;;;;;;;5043372;28;20032;-75
2022/01/06 05:43:00;;;;;;;;;;;;;;;;;;5048628;28;20306;-75
2022/01/06 05:45:28;;;;;;;;;;;;;;;;;;5050095;28;19935;-75
2022/01/06 05:47:55;;;;;;;;;;;;;;;;;;5045296;28;19932;-75
2022/01/06 05:50:22;;;;;;;;;;;;;;;;;;5046997;28;19949;-75
2022/01/06 05:52:49;;;;;;;;;;;;;;;;;;5046998;28;19951;-75
2022/01/06 05:55:16;;;;;;;;;;;;;;;;;;5049008;28;19936;-75
2022/01/06 05:57:43;;;;;;;;;;;;;;;;;;5046380;28;20019;-75
2022/01/06 06:00:10;;;;;;;;;;;;;;;;;;5049577;28;19931;-75
2022/01/06 06:02:37;;;;;;;;;;;;;;;;;;5047564;28;19935;-76
2022/01/06 06:05:04;;;;;;;;;;;;;;;;;;5050649;28;19931;-75
2022/01/06 06:07:31;;;;;;;;;;;;;;;;;;5044669;28;19952;-75
2022/01/06 06:09:58;;;;;;;;;;;;;;;;;;5049767;28;20333;-75
2022/01/06 06:12:25;;;;;;;;;;;;;;;;;;5048054;28;19929;-75
2022/01/06 06:14:52;;;;;;;;;;;;;;;;;;5050238;28;19928;-76
2022/01/06 06:17:19;;;;;;;;;;;;;;;;;;5050836;28;20382;-74
2022/01/06 06:19:46;;;;;;;;;;;;;;;;;;5049879;28;19933;-75
2022/01/06 06:22:13;;;;;;;;;;;;;;;;;;5046138;28;20305;-75
2022/01/06 06:24:40;;;;;;;;;;;;;;;;;;5043468;28;19925;-75
2022/01/06 06:27:07;;;;;;;;;;;;;;;;;;5046588;28;19929;-75
2022/01/06 06:29:34;;;;;;;;;;;;;;;;;;5046607;28;20015;-75
2022/01/06 06:32:01;;;;;;;;;;;;;;;;;;5041873;28;19971;-75
2022/01/06 06:34:28;;;;;;;;;;;;;;;;;;5047190;28;20031;-74
2022/01/06 06:36:55;;;;;;;;;;;;;;;;;;5044195;28;19925;-74
2022/01/06 06:39:22;;;;;;;;;;;;;;;;;;5041392;28;19925;-74
2022/01/06 06:41:49;;;;;;;;;;;;;;;;;;5041653;28;20038;-74
2022/01/06 06:44:16;;;;;;;;;;;;;;;;;;5051047;28;20031;-74
2022/01/06 06:46:43;;;;;;;;;;;;;;;;;;5050146;28;19947;-73
2022/01/06 06:49:10;;;;;;;;;;;;;;;;;;5050037;28;19925;-72
2022/01/06 06:51:37;;;;;;;;;;;;;;;;;;5046095;28;19939;-73
2022/01/06 06:54:04;;;;;;;;;;;;;;;;;;5046667;28;20388;-72
2022/01/06 06:56:31;;;;;;;;;;;;;;;;;;5048667;28;19960;-73
2022/01/06 06:58:58;;;;;;;;;;;;;;;;;;5042949;28;20007;-73
2022/01/06 07:01:25;;;;;;;;;;;;;;;;;;5042468;28;20267;-75
2022/01/06 07:03:52;;;;;;;;;;;;;;;;;;5060851;22;19939;-77
2022/01/06 07:06:19;;;;;;;;;;;;;;;;;;5040515;28;19925;-76
2022/01/06 07:08:46;;;;;;;;;;;;;;;;;;5045180;28;19936;-77
2022/01/06 07:11:13;;;;;;;;;;;;;;;;;;5044654;28;19926;-77
2022/01/06 07:13:39;;;;;;;;;;;;;;;;;;5037217;28;19932;-78
2022/01/06 07:16:06;;;;;;;;;;;;;;;;;;5037342;28;19929;-77
2022/01/06 07:18:33;;;;;;;;;;;;;;;;;;5036187;28;19926;-78
2022/01/06 07:21:00;;;;;;;;;;;;;;;;;;5033266;28;19929;-77
2022/01/06 07:23:27;;;;;;;;;;;;;;;;;;5036645;28;19925;-76
2022/01/06 07:25:54;;;;;;;;;;;;;;;;;;5034230;28;19924;-77
2022/01/06 07:28:21;;;;;;;;;;;;;;;;;;5035970;28;19929;-77
2022/01/06 07:30:48;;;;;;;;;;;;;;;;;;5036400;28;19932;-76
2022/01/06 07:33:15;;;;;;;;;;;;;;;;;;5035144;28;19933;-76
2022/01/06 07:35:42;;;;;;;;;;;;;;;;;;5034526;28;19936;-77
2022/01/06 07:38:09;;;;;;;;;;;;;;;;;;5037268;28;19951;-77
2022/01/06 07:40:36;;;;;;;;;;;;;;;;;;5032458;28;19940;-76
2022/01/06 07:43:03;;;;;;;;;;;;;;;;;;5034874;28;19932;-75
2022/01/06 07:45:30;;;;;;;;;;;;;;;;;;5033914;28;20478;-75
2022/01/06 07:47:58;;;;;;;;;;;;;;;;;;5037840;28;19932;-76
2022/01/06 07:50:25;;;;;;;;;;;;;;;;;;5034708;28;19925;-76
2022/01/06 07:52:52;;;;;;;;;;;;;;;;;;5042912;28;19932;-76
2022/01/06 07:55:19;;;;;;;;;;;;;;;;;;5039740;28;19931;-76
2022/01/06 07:57:46;;;;;;;;;;;;;;;;;;5037642;28;19940;-78
2022/01/06 08:00:13;;;;;;;;;;;;;;;;;;5039575;28;19929;-78
2022/01/06 08:02:40;;;;;;;;;;;;;;;;;;5038692;28;19940;-77
2022/01/06 08:05:09;;;;;;;;;;;;;;;;;;5041381;28;19933;-76
2022/01/06 08:07:36;;;;;;;;;;;;;;;;;;5037196;28;20016;-77
2022/01/06 08:10:03;;;;;;;;;;;;;;;;;;5034356;28;20417;-76
2022/01/06 08:12:30;;;;;;;;;;;;;;;;;;5042027;28;19936;-78
2022/01/06 08:14:57;;;;;;;;;;;;;;;;;;5040954;28;19952;-77
2022/01/06 08:17:24;;;;;;;;;;;;;;;;;;5041444;28;19929;-77
2022/01/06 08:19:52;;;;;;;;;;;;;;;;;;5037885;28;19931;-77
2022/01/06 08:22:19;;;;;;;;;;;;;;;;;;5038215;28;19964;-78
2022/01/06 08:24:45;;;;;;;;;;;;;;;;;;5043447;28;19952;-77
2022/01/06 08:27:12;;;;;;;;;;;;;;;;;;5039149;28;19925;-77
2022/01/06 08:29:39;;;;;;;;;;;;;;;;;;5035720;28;20413;-78
2022/01/06 08:32:06;;;;;;;;;;;;;;;;;;5041512;28;19933;-77
2022/01/06 08:34:33;;;;;;;;;;;;;;;;;;5033635;28;20011;-78
2022/01/06 08:37:00;;;;;;;;;;;;;;;;;;5040566;28;19925;-77
2022/01/06 08:39:27;;;;;;;;;;;;;;;;;;5034748;28;19925;-77
2022/01/06 08:41:54;;;;;;;;;;;;;;;;;;5035722;28;20365;-78
2022/01/06 08:44:21;;;;;;;;;;;;;;;;;;5031626;28;19933;-77
2022/01/06 08:46:48;;;;;;;;;;;;;;;;;;5036191;28;19924;-78
2022/01/06 08:49:15;;;;;;;;;;;;;;;;;;5035062;28;20314;-77
2022/01/06 08:51:42;;;;;;;;;;;;;;;;;;5040574;28;19925;-76
2022/01/06 08:54:08;;;;;;;;;;;;;;;;;;5036690;28;20012;-75
2022/01/06 08:56:35;;;;;;;;;;;;;;;;;;5039867;28;19933;-76
2022/01/06 08:59:02;;;;;;;;;;;;;;;;;;5026752;28;19932;-76
2022/01/06 09:01:29;;;;;;;;;;;;;;;;;;5027359;28;20302;-77
2022/01/06 09:03:56;;;;;;;;;;;;;;;;;;5026590;28;19929;-77
2022/01/06 09:06:23;;;;;;;;;;;;;;;;;;5028702;28;19940;-77
2022/01/06 09:08:50;;;;;;;;;;;;;;;;;;5020063;28;20383;-77
2022/01/06 09:11:18;;;;;;;;;;;;;;;;;;5028991;28;19928;-78
2022/01/06 09:13:45;;;;;;;;;;;;;;;;;;5039165;28;19929;-76
2022/01/06 09:16:13;;;;;;;;;;;;;;;;;;5024081;28;20665;-77
2022/01/06 09:18:39;;;;;;;;;;;;;;;;;;5026147;28;20503;-78
2022/01/06 09:21:06;;;;;;;;;;;;;;;;;;5031459;28;19933;-78
2022/01/06 09:23:33;;;;;;;;;;;;;;;;;;5032262;28;19964;-76
2022/01/06 09:26:00;;;;;;;;;;;;;;;;;;5024520;28;20289;-76
2022/01/06 09:28:27;;;;;;;;;;;;;;;;;;5025892;28;19929;-76
2022/01/06 09:30:55;;;;;;;;;;;;;;;;;;5021581;28;19932;-76
2022/01/06 09:33:22;;;;;;;;;;;;;;;;;;5027986;28;19994;-72
2022/01/06 09:35:49;;;;;;;;;;;;;;;;;;5029867;28;19925;-72
2022/01/06 09:38:16;;;;;;;;;;;;;;;;;;5037713;28;19935;-72
2022/01/06 09:40:43;;;;;;;;;;;;;;;;;;5034099;28;19925;-72
2022/01/06 09:43:12;;;;;;;;;;;;;;;;;;5023044;28;19929;-73
2022/01/06 09:45:38;;;;;;;;;;;;;;;;;;5027689;28;19932;-72
2022/01/06 09:48:05;;;;;;;;;;;;;;;;;;5033544;28;19929;-72
2022/01/06 09:50:32;;;;;;;;;;;;;;;;;;5024909;28;19925;-72
2022/01/06 09:52:59;;;;;;;;;;;;;;;;;;5033967;28;19929;-72
2022/01/06 09:55:26;;;;;;;;;;;;;;;;;;5038394;28;19933;-71
2022/01/06 09:57:53;;;;;;;;;;;;;;;;;;5033299;28;19941;-71
2022/01/06 10:00:20;;;;;;;;;;;;;;;;;;5037183;28;19925;-71
2022/01/06 10:02:47;;;;;;;;;;;;;;;;;;5028980;28;19925;-72
2022/01/06 10:05:14;;;;;;;;;;;;;;;;;;5028388;28;19932;-72
2022/01/06 10:07:41;;;;;;;;;;;;;;;;;;5024555;28;19948;-71
2022/01/06 10:10:08;;;;;;;;;;;;;;;;;;5025876;28;19925;-71
2022/01/06 10:12:36;;;;;;;;;;;;;;;;;;5025908;28;20400;-72
2022/01/06 10:15:03;;;;;;;;;;;;;;;;;;5026663;28;19956;-72
2022/01/06 10:17:30;;;;;;;;;;;;;;;;;;5024661;28;19924;-72
2022/01/06 10:19:56;;;;;;;;;;;;;;;;;;5038572;28;19929;-72
2022/01/06 10:22:23;;;;;;;;;;;;;;;;;;5034931;28;19925;-72
2022/01/06 10:24:50;;;;;;;;;;;;;;;;;;5033594;28;19932;-71
2022/01/06 10:27:17;;;;;;;;;;;;;;;;;;5037068;28;19926;-72
2022/01/06 10:29:44;;;;;;;;;;;;;;;;;;5037937;28;19929;-71
2022/01/06 10:32:11;;;;;;;;;;;;;;;;;;5037696;28;19936;-71
2022/01/06 10:34:39;;;;;;;;;;;;;;;;;;5032010;28;19940;-71
2022/01/06 10:37:06;;;;;;;;;;;;;;;;;;5035796;28;20045;-66
2022/01/06 10:39:33;;;;;;;;;;;;;;;;;;5028249;28;20024;-67
2022/01/06 10:42:00;;;;;;;;;;;;;;;;;;5024453;28;19948;-68
2022/01/06 10:44:27;;;;;;;;;;;;;;;;;;5029853;28;19929;-68
2022/01/06 10:46:54;;;;;;;;;;;;;;;;;;5022140;28;20453;-68
2022/01/06 10:49:21;;;;;;;;;;;;;;;;;;5021296;28;19928;-67
2022/01/06 10:51:48;;;;;;;;;;;;;;;;;;5030195;28;19932;-68
2022/01/06 10:54:15;;;;;;;;;;;;;;;;;;5026311;28;19928;-68
2022/01/06 10:56:42;;;;;;;;;;;;;;;;;;5024158;28;19924;-68
2022/01/06 10:59:09;;;;;;;;;;;;;;;;;;5027242;28;20348;-68
2022/01/06 11:01:36;;;;;;;;;;;;;;;;;;5028458;28;19948;-69
2022/01/06 11:04:03;;;;;;;;;;;;;;;;;;5029072;28;19933;-69
2022/01/06 11:06:30;;;;;;;;;;;;;;;;;;5028137;28;19932;-68
2022/01/06 11:08:56;;;;;;;;;;;;;;;;;;5031206;28;20430;-68
2022/01/06 11:11:31;;;;;;;;;;;;;;;;;;5033203;28;19932;-69
2022/01/06 11:13:58;;;;;;;;;;;;;;;;;;5026102;28;20358;-69
2022/01/06 11:16:25;;;;;;;;;;;;;;;;;;5026514;28;19929;-69
2022/01/06 11:18:52;;;;;;;;;;;;;;;;;;5022433;28;19925;-69
2022/01/06 11:21:19;;;;;;;;;;;;;;;;;;5026886;28;19925;-68
2022/01/06 11:23:46;;;;;;;;;;;;;;;;;;5029776;28;20408;-67
2022/01/06 11:26:13;;;;;;;;;;;;;;;;;;5024631;28;19933;-69
2022/01/06 11:28:40;;;;;;;;;;;;;;;;;;5023722;28;19925;-68
2022/01/06 11:31:07;;;;;;;;;;;;;;;;;;5029904;28;19933;-69
2022/01/06 11:33:34;;;;;;;;;;;;;;;;;;5030948;28;20965;-69
2022/01/06 11:36:01;;;;;;;;;;;;;;;;;;5032458;28;20285;-68
2022/01/06 11:38:28;;;;;;;;;;;;;;;;;;5023549;28;19929;-68
2022/01/06 11:40:55;;;;;;;;;;;;;;;;;;5021290;28;19948;-69
2022/01/06 11:43:22;;;;;;;;;;;;;;;;;;5024564;28;19925;-68
2022/01/06 11:45:49;;;;;;;;;;;;;;;;;;5033874;28;19925;-69
2022/01/06 11:48:17;;;;;;;;;;;;;;;;;;5023192;28;20454;-70
2022/01/06 11:50:44;;;;;;;;;;;;;;;;;;5038813;28;19985;-69
2022/01/06 11:53:11;;;;;;;;;;;;;;;;;;5020555;28;20087;-70
2022/01/06 11:55:38;;;;;;;;;;;;;;;;;;5040789;28;19925;-69
2022/01/06 11:58:05;;;;;;;;;;;;;;;;;;5029656;28;19925;-69
2022/01/06 12:00:32;;;;;;;;;;;;;;;;;;5030438;28;19936;-69
2022/01/06 12:02:59;;;;;;;;;;;;;;;;;;5027221;28;19925;-69
2022/01/06 12:05:26;;;;;;;;;;;;;;;;;;5032993;28;19939;-69
2022/01/06 12:07:53;;;;;;;;;;;;;;;;;;5029798;28;19932;-70
2022/01/06 12:10:21;;;;;;;;;;;;;;;;;;5037536;28;19956;-71
2022/01/06 12:12:48;;;;;;;;;;;;;;;;;;5029179;28;19929;-69
2022/01/06 12:15:15;;;;;;;;;;;;;;;;;;5041157;28;19948;-69
2022/01/06 12:17:41;;;;;;;;;;;;;;;;;;5031033;28;19932;-69
2022/01/06 12:20:08;;;;;;;;;;;;;;;;;;5030348;28;20290;-68
2022/01/06 12:22:35;;;;;;;;;;;;;;;;;;5031021;28;20295;-70
2022/01/06 12:25:03;;;;;;;;;;;;;;;;;;5024427;28;20332;-68
2022/01/06 12:27:30;;;;;;;;;;;;;;;;;;5027480;28;19971;-68
2022/01/06 12:29:57;;;;;;;;;;;;;;;;;;5037460;28;20408;-69
2022/01/06 12:32:24;;;;;;;;;;;;;;;;;;5026299;28;19933;-70
2022/01/06 12:34:51;;;;;;;;;;;;;;;;;;5030003;28;19966;-70
2022/01/06 12:37:18;;;;;;;;;;;;;;;;;;5032745;28;19932;-70
2022/01/06 12:39:45;;;;;;;;;;;;;;;;;;5029574;28;19926;-70
2022/01/06 12:42:12;;;;;;;;;;;;;;;;;;5038268;28;20534;-70
2022/01/06 12:44:39;;;;;;;;;;;;;;;;;;5025968;28;20329;-70
2022/01/06 12:47:07;;;;;;;;;;;;;;;;;;5030298;28;19924;-69
2022/01/06 12:49:34;;;;;;;;;;;;;;;;;;5032742;28;19987;-69
2022/01/06 12:52:01;;;;;;;;;;;;;;;;;;5028262;28;19925;-68
2022/01/06 12:54:30;;;;;;;;;;;;;;;;;;5031536;28;19925;-69
2022/01/06 12:56:57;;;;;;;;;;;;;;;;;;5029205;28;20028;-69
2022/01/06 12:59:28;;;;;;;;;;;;;;;;;;5027493;28;20402;-68
2022/01/06 13:01:56;;;;;;;;;;;;;;;;;;5025852;28;19939;-69
2022/01/06 13:04:23;;;;;;;;;;;;;;;;;;5037493;22;19940;-69
2022/01/06 13:06:50;;;;;;;;;;;;;;;;;;5021961;28;19925;-69
2022/01/06 13:09:17;;;;;;;;;;;;;;;;;;5019803;28;20299;-69
2022/01/06 13:11:47;;;;;;;;;;;;;;;;;;5024469;28;19925;-69
2022/01/06 13:14:14;;;;;;;;;;;;;;;;;;5024920;28;19987;-70
2022/01/06 13:16:41;;;;;;;;;;;;;;;;;;5021099;28;19978;-69
2022/01/06 13:19:11;;;;;;;;;;;;;;;;;;5026989;28;19926;-69
2022/01/06 13:21:39;;;;;;;;;;;;;;;;;;5025580;28;19933;-69
2022/01/06 13:24:06;;;;;;;;;;;;;;;;;;5022875;28;20360;-69
2022/01/06 13:26:35;;;;;;;;;;;;;;;;;;5024893;28;20095;-68
2022/01/06 13:29:08;;;;;;;;;;;;;;;;;;5022590;28;19925;-69
2022/01/06 13:31:35;;;;;;;;;;;;;;;;;;5019108;28;19925;-68
2022/01/06 13:34:01;;;;;;;;;;;;;;;;;;5026489;28;19929;-68
2022/01/06 13:36:28;;;;;;;;;;;;;;;;;;5022275;28;19933;-68
2022/01/06 13:38:55;;;;;;;;;;;;;;;;;;5024753;28;19932;-68
2022/01/06 13:41:22;;;;;;;;;;;;;;;;;;5023106;28;19932;-70
2022/01/06 13:43:49;;;;;;;;;;;;;;;;;;5020752;28;19929;-68
2022/01/06 13:46:21;;;;;;;;;;;;;;;;;;5022380;28;21676;-68
2022/01/06 13:51:04;;;;;;;;;;;;;;;;;;5020973;28;20021;-68
2022/01/06 13:51:34;;;;;;;;;;;;;;;;;;5020841;28;19933;-68
2022/01/06 13:54:01;;;;;;;;;;;;;;;;;;5020375;28;19921;-68
2022/01/06 13:56:30;;;;;;;;;;;;;;;;;;5020186;28;19925;-69
2022/01/06 13:58:57;;;;;;;;;;;;;;;;;;5019877;28;19999;-68
2022/01/06 14:01:24;;;;;;;;;;;;;;;;;;5024495;28;19936;-68
2022/01/06 14:03:51;;;;;;;;;;;;;;;;;;5022043;28;19931;-69
2022/01/06 14:06:18;;;;;;;;;;;;;;;;;;5024026;28;20348;-70
2022/01/06 14:08:44;;;;;;;;;;;;;;;;;;5020005;28;19940;-69
2022/01/06 14:11:12;;;;;;;;;;;;;;;;;;5018655;28;19928;-69
2022/01/06 14:13:39;;;;;;;;;;;;;;;;;;5020806;28;19933;-69
2022/01/06 14:16:06;;;;;;;;;;;;;;;;;;5019892;28;19964;-69
2022/01/06 14:18:33;;;;;;;;;;;;;;;;;;5021728;28;19933;-69
2022/01/06 14:21:00;;;;;;;;;;;;;;;;;;5024456;28;19940;-69
2022/01/06 14:23:28;;;;;;;;;;;;;;;;;;5020677;28;19935;-69
2022/01/06 14:25:55;;;;;;;;;;;;;;;;;;5024317;28;19929;-68
2022/01/06 14:28:22;;;;;;;;;;;;;;;;;;5022610;28;19932;-68
2022/01/06 14:30:48;;;;;;;;;;;;;;;;;;5022752;28;19940;-68
2022/01/06 14:33:15;;;;;;;;;;;;;;;;;;5024960;28;19925;-69
2022/01/06 14:35:42;;;;;;;;;;;;;;;;;;5018695;28;19925;-69
2022/01/06 14:38:09;;;;;;;;;;;;;;;;;;5023065;28;19932;-69
2022/01/06 14:40:36;;;;;;;;;;;;;;;;;;5022794;28;20511;-70
2022/01/06 14:43:03;;;;;;;;;;;;;;;;;;5020495;28;20354;-69
2022/01/06 14:45:31;;;;;;;;;;;;;;;;;;5020291;28;19933;-69
2022/01/06 14:47:58;;;;;;;;;;;;;;;;;;5022207;28;19925;-68
2022/01/06 14:50:25;;;;;;;;;;;;;;;;;;5019950;28;20301;-69
2022/01/06 14:52:52;;;;;;;;;;;;;;;;;;5020657;28;19932;-69
2022/01/06 14:55:19;;;;;;;;;;;;;;;;;;5018408;28;20371;-68
2022/01/06 14:57:46;;;;;;;;;;;;;;;;;;5022330;28;20335;-68
2022/01/06 15:00:13;;;;;;;;;;;;;;;;;;5025391;28;19926;-69
2022/01/06 15:02:40;;;;;;;;;;;;;;;;;;5028088;28;19964;-69
2022/01/06 15:05:07;;;;;;;;;;;;;;;;;;5029044;28;20023;-68
2022/01/06 15:07:34;;;;;;;;;;;;;;;;;;5027769;28;19925;-67
2022/01/06 15:10:02;;;;;;;;;;;;;;;;;;5026330;28;19932;-69
2022/01/06 15:12:29;;;;;;;;;;;;;;;;;;5020295;28;20008;-69
2022/01/06 15:14:56;;;;;;;;;;;;;;;;;;5021506;28;19988;-69
2022/01/06 15:17:24;;;;;;;;;;;;;;;;;;5024968;28;20019;-69
2022/01/06 15:19:51;;;;;;;;;;;;;;;;;;5025607;28;19987;-69
2022/01/06 15:22:18;;;;;;;;;;;;;;;;;;5026100;28;19948;-70
2022/01/06 15:24:45;;;;;;;;;;;;;;;;;;5022585;28;19956;-70
2022/01/06 15:27:21;;;;;;;;;;;;;;;;;;5022963;28;19933;-69
2022/01/06 15:29:48;;;;;;;;;;;;;;;;;;5019411;28;19936;-67
2022/01/06 15:32:15;;;;;;;;;;;;;;;;;;5021352;28;19935;-69
2022/01/06 15:34:42;;;;;;;;;;;;;;;;;;5021924;28;20008;-69
2022/01/06 15:37:09;;;;;;;;;;;;;;;;;;5020868;28;20624;-69
2022/01/06 15:39:36;;;;;;;;;;;;;;;;;;5025623;28;19964;-69
2022/01/06 15:42:03;;;;;;;;;;;;;;;;;;5031371;28;19925;-69
2022/01/06 15:44:30;;;;;;;;;;;;;;;;;;5025515;28;19925;-69
2022/01/06 15:46:57;;;;;;;;;;;;;;;;;;5025585;28;19925;-69
2022/01/06 15:49:24;;;;;;;;;;;;;;;;;;5025987;28;20016;-69
2022/01/06 15:51:51;;;;;;;;;;;;;;;;;;5026003;28;19929;-69
2022/01/06 15:54:18;;;;;;;;;;;;;;;;;;5023337;28;19925;-69
2022/01/06 15:56:45;;;;;;;;;;;;;;;;;;5021639;28;20347;-69
2022/01/06 15:59:13;;;;;;;;;;;;;;;;;;5021732;28;20398;-69
2022/01/06 16:04:59;;;;;;;;;;;;;;;;;;5023078;28;19968;-69
2022/01/06 16:07:13;;;;;;;;;;;;;;;;;;5021052;28;19919;-69
2022/01/06 16:09:40;;;;;;;;;;;;;;;;;;5025870;28;20046;-70
2022/01/06 16:12:07;;;;;;;;;;;;;;;;;;5024490;28;20028;-70
2022/01/06 16:14:34;;;;;;;;;;;;;;;;;;5026758;28;19925;-69
2022/01/06 16:17:01;;;;;;;;;;;;;;;;;;5024426;28;19926;-69
2022/01/06 16:19:28;;;;;;;;;;;;;;;;;;5024426;28;20325;-69
2022/01/06 16:21:55;;;;;;;;;;;;;;;;;;5024013;28;19933;-70
2022/01/06 16:24:22;;;;;;;;;;;;;;;;;;5024017;28;19925;-70
2022/01/06 16:26:49;;;;;;;;;;;;;;;;;;5029284;28;19948;-69
2022/01/06 16:29:16;;;;;;;;;;;;;;;;;;5023721;28;20004;-70
2022/01/06 16:31:43;;;;;;;;;;;;;;;;;;5027916;28;20286;-69
2022/01/06 16:34:10;;;;;;;;;;;;;;;;;;5027543;28;19925;-69
2022/01/06 16:36:38;;;;;;;;;;;;;;;;;;5027736;28;20039;-69
2022/01/06 16:39:05;;;;;;;;;;;;;;;;;;5022985;28;19935;-69
2022/01/06 16:41:32;;;;;;;;;;;;;;;;;;5026878;28;20397;-69
2022/01/06 16:43:59;;;;;;;;;;;;;;;;;;5023861;28;20357;-69
2022/01/06 16:46:25;;;;;;;;;;;;;;;;;;5026422;28;20412;-69
2022/01/06 16:48:52;;;;;;;;;;;;;;;;;;5028380;28;20390;-69
2022/01/06 16:51:19;;;;;;;;;;;;;;;;;;5024688;28;20417;-69